sensor_id;sensor_type;location;lat;lon;timestamp;P1;durP1;ratioP1;P2;durP2;ratioP2
7985;SDS011;4038;42.612;23.066;2023-01-24T00:00:40;26.13;;;24.30;;
7985;SDS011;4038;42.612;23.066;2023-01-24T00:03:05;26.30;;;24.30;;
7985;SDS011;4038;42.612;23.066;2023-01-24T00:05:36;25.80;;;23.83;;
7985;SDS011;4038;42.612;23.066;2023-01-24T00:08:02;25.70;;;23.77;;
7985;SDS011;4038;42.612;23.066;2023-01-24T00:10:28;26.67;;;24.67;;
7985;SDS011;4038;42.612;23.066;2023-01-24T00:12:54;25.47;;;23.57;;
7985;SDS011;4038;42.612;23.066;2023-01-24T00:15:19;26.10;;;24.00;;
7985;SDS011;4038;42.612;23.066;2023-01-24T00:17:44;28.00;;;25.90;;
7985;SDS011;4038;42.612;23.066;2023-01-24T00:20:10;29.40;;;26.73;;
7985;SDS011;4038;42.612;23.066;2023-01-24T00:22:36;31.30;;;28.60;;
7985;SDS011;4038;42.612;23.066;2023-01-24T00:25:01;29.57;;;27.17;;
7985;SDS011;4038;42.612;23.066;2023-01-24T00:27:27;27.80;;;25.60;;
7985;SDS011;4038;42.612;23.066;2023-01-24T00:29:52;25.38;;;23.38;;
7985;SDS011;4038;42.612;23.066;2023-01-24T00:32:17;25.00;;;23.20;;
7985;SDS011;4038;42.612;23.066;2023-01-24T00:34:43;25.73;;;23.70;;
7985;SDS011;4038;42.612;23.066;2023-01-24T00:37:08;25.87;;;23.83;;
7985;SDS011;4038;42.612;23.066;2023-01-24T00:39:33;27.50;;;25.40;;
7985;SDS011;4038;42.612;23.066;2023-01-24T00:41:59;26.23;;;24.23;;
7985;SDS011;4038;42.612;23.066;2023-01-24T00:44:24;26.00;;;24.00;;
7985;SDS011;4038;42.612;23.066;2023-01-24T00:46:53;26.73;;;24.73;;
7985;SDS011;4038;42.612;23.066;2023-01-24T00:49:18;27.93;;;25.70;;
7985;SDS011;4038;42.612;23.066;2023-01-24T00:51:44;25.13;;;23.17;;
7985;SDS011;4038;42.612;23.066;2023-01-24T00:54:09;24.30;;;22.47;;
7985;SDS011;4038;42.612;23.066;2023-01-24T00:56:35;24.30;;;22.60;;
7985;SDS011;4038;42.612;23.066;2023-01-24T00:59:00;24.97;;;23.17;;
7985;SDS011;4038;42.612;23.066;2023-01-24T01:01:25;25.10;;;23.07;;
7985;SDS011;4038;42.612;23.066;2023-01-24T01:03:54;23.57;;;21.93;;
7985;SDS011;4038;42.612;23.066;2023-01-24T01:06:20;25.13;;;23.20;;
7985;SDS011;4038;42.612;23.066;2023-01-24T01:08:46;25.03;;;23.23;;
7985;SDS011;4038;42.612;23.066;2023-01-24T01:11:11;25.07;;;23.17;;
7985;SDS011;4038;42.612;23.066;2023-01-24T01:13:37;24.57;;;22.57;;
7985;SDS011;4038;42.612;23.066;2023-01-24T01:16:03;24.10;;;22.40;;
7985;SDS011;4038;42.612;23.066;2023-01-24T01:18:31;24.10;;;22.37;;
7985;SDS011;4038;42.612;23.066;2023-01-24T01:20:57;24.30;;;22.40;;
7985;SDS011;4038;42.612;23.066;2023-01-24T01:23:23;23.57;;;21.87;;
7985;SDS011;4038;42.612;23.066;2023-01-24T01:25:48;23.77;;;22.07;;
7985;SDS011;4038;42.612;23.066;2023-01-24T01:28:13;24.33;;;22.53;;
7985;SDS011;4038;42.612;23.066;2023-01-24T01:30:39;24.00;;;22.30;;
7985;SDS011;4038;42.612;23.066;2023-01-24T01:33:04;23.97;;;22.17;;
7985;SDS011;4038;42.612;23.066;2023-01-24T01:35:30;25.13;;;23.27;;
7985;SDS011;4038;42.612;23.066;2023-01-24T01:37:55;23.30;;;21.50;;
7985;SDS011;4038;42.612;23.066;2023-01-24T01:40:20;23.88;;;22.05;;
7985;SDS011;4038;42.612;23.066;2023-01-24T01:42:50;24.27;;;22.50;;
7985;SDS011;4038;42.612;23.066;2023-01-24T01:51:11;24.30;;;22.50;;
7985;SDS011;4038;42.612;23.066;2023-01-24T01:54:14;24.23;;;22.43;;
7985;SDS011;4038;42.612;23.066;2023-01-24T01:56:46;23.23;;;21.43;;
7985;SDS011;4038;42.612;23.066;2023-01-24T01:59:16;23.57;;;21.77;;
7985;SDS011;4038;42.612;23.066;2023-01-24T02:01:45;24.63;;;22.83;;
7985;SDS011;4038;42.612;23.066;2023-01-24T02:04:25;24.63;;;22.90;;
7985;SDS011;4038;42.612;23.066;2023-01-24T02:09:33;24.10;;;22.07;;
7985;SDS011;4038;42.612;23.066;2023-01-24T02:12:04;23.73;;;22.07;;
7985;SDS011;4038;42.612;23.066;2023-01-24T02:14:33;23.20;;;21.50;;
7985;SDS011;4038;42.612;23.066;2023-01-24T02:17:19;23.97;;;22.17;;
7985;SDS011;4038;42.612;23.066;2023-01-24T02:27:30;23.77;;;21.97;;
7985;SDS011;4038;42.612;23.066;2023-01-24T02:29:56;23.90;;;22.10;;
7985;SDS011;4038;42.612;23.066;2023-01-24T02:32:22;24.97;;;22.97;;
7985;SDS011;4038;42.612;23.066;2023-01-24T02:34:47;23.50;;;21.70;;
7985;SDS011;4038;42.612;23.066;2023-01-24T02:37:13;24.17;;;22.27;;
7985;SDS011;4038;42.612;23.066;2023-01-24T02:42:18;24.53;;;22.67;;
7985;SDS011;4038;42.612;23.066;2023-01-24T02:45:00;23.43;;;21.63;;
7985;SDS011;4038;42.612;23.066;2023-01-24T02:47:27;24.33;;;22.53;;
7985;SDS011;4038;42.612;23.066;2023-01-24T02:50:00;24.20;;;22.33;;
7985;SDS011;4038;42.612;23.066;2023-01-24T02:52:26;24.30;;;22.40;;
7985;SDS011;4038;42.612;23.066;2023-01-24T02:55:11;22.87;;;21.17;;
7985;SDS011;4038;42.612;23.066;2023-01-24T02:57:36;22.93;;;21.23;;
7985;SDS011;4038;42.612;23.066;2023-01-24T03:00:20;23.13;;;21.43;;
7985;SDS011;4038;42.612;23.066;2023-01-24T03:02:46;22.70;;;21.03;;
7985;SDS011;4038;42.612;23.066;2023-01-24T03:05:11;23.10;;;21.37;;
7985;SDS011;4038;42.612;23.066;2023-01-24T03:07:37;24.13;;;22.33;;
7985;SDS011;4038;42.612;23.066;2023-01-24T03:10:13;23.10;;;21.47;;
7985;SDS011;4038;42.612;23.066;2023-01-24T03:12:41;24.30;;;22.50;;
7985;SDS011;4038;42.612;23.066;2023-01-24T03:15:25;23.17;;;21.50;;
7985;SDS011;4038;42.612;23.066;2023-01-24T03:18:09;23.13;;;21.43;;
7985;SDS011;4038;42.612;23.066;2023-01-24T03:20:54;22.83;;;21.13;;
7985;SDS011;4038;42.612;23.066;2023-01-24T03:23:38;23.17;;;21.47;;
7985;SDS011;4038;42.612;23.066;2023-01-24T03:26:22;22.77;;;21.07;;
7985;SDS011;4038;42.612;23.066;2023-01-24T03:29:06;24.03;;;22.23;;
7985;SDS011;4038;42.612;23.066;2023-01-24T03:31:50;24.03;;;22.33;;
7985;SDS011;4038;42.612;23.066;2023-01-24T03:34:34;24.27;;;22.57;;
7985;SDS011;4038;42.612;23.066;2023-01-24T03:37:10;23.90;;;22.10;;
7985;SDS011;4038;42.612;23.066;2023-01-24T03:39:36;23.37;;;21.67;;
7985;SDS011;4038;42.612;23.066;2023-01-24T03:42:26;23.37;;;21.67;;
7985;SDS011;4038;42.612;23.066;2023-01-24T03:44:52;23.10;;;21.50;;
7985;SDS011;4038;42.612;23.066;2023-01-24T03:47:20;23.27;;;21.57;;
7985;SDS011;4038;42.612;23.066;2023-01-24T03:49:45;22.57;;;20.97;;
7985;SDS011;4038;42.612;23.066;2023-01-24T03:52:29;22.73;;;21.13;;
7985;SDS011;4038;42.612;23.066;2023-01-24T03:54:55;23.30;;;21.50;;
7985;SDS011;4038;42.612;23.066;2023-01-24T03:57:21;22.47;;;20.80;;
7985;SDS011;4038;42.612;23.066;2023-01-24T03:59:47;23.80;;;22.13;;
7985;SDS011;4038;42.612;23.066;2023-01-24T04:02:13;22.20;;;20.60;;
7985;SDS011;4038;42.612;23.066;2023-01-24T04:04:38;23.10;;;21.50;;
7985;SDS011;4038;42.612;23.066;2023-01-24T04:07:22;22.40;;;20.80;;
7985;SDS011;4038;42.612;23.066;2023-01-24T04:09:48;23.50;;;21.80;;
7985;SDS011;4038;42.612;23.066;2023-01-24T04:12:13;22.50;;;20.90;;
7985;SDS011;4038;42.612;23.066;2023-01-24T04:14:39;22.20;;;20.60;;
7985;SDS011;4038;42.612;23.066;2023-01-24T04:17:04;21.90;;;20.30;;
7985;SDS011;4038;42.612;23.066;2023-01-24T04:19:29;22.40;;;20.80;;
7985;SDS011;4038;42.612;23.066;2023-01-24T04:21:55;22.83;;;21.23;;
7985;SDS011;4038;42.612;23.066;2023-01-24T04:24:22;22.47;;;20.97;;
7985;SDS011;4038;42.612;23.066;2023-01-24T04:26:48;22.30;;;20.80;;
7985;SDS011;4038;42.612;23.066;2023-01-24T04:29:13;22.53;;;20.93;;
7985;SDS011;4038;42.612;23.066;2023-01-24T04:31:39;21.90;;;20.40;;
7985;SDS011;4038;42.612;23.066;2023-01-24T04:34:04;22.00;;;20.40;;
7985;SDS011;4038;42.612;23.066;2023-01-24T04:36:29;21.53;;;20.03;;
7985;SDS011;4038;42.612;23.066;2023-01-24T04:38:55;21.63;;;20.13;;
7985;SDS011;4038;42.612;23.066;2023-01-24T04:41:20;22.37;;;20.77;;
7985;SDS011;4038;42.612;23.066;2023-01-24T04:43:46;22.40;;;20.80;;
7985;SDS011;4038;42.612;23.066;2023-01-24T04:46:11;21.73;;;20.30;;
7985;SDS011;4038;42.612;23.066;2023-01-24T04:48:37;21.80;;;20.30;;
7985;SDS011;4038;42.612;23.066;2023-01-24T04:51:02;21.70;;;20.23;;
7985;SDS011;4038;42.612;23.066;2023-01-24T04:53:28;22.10;;;20.50;;
7985;SDS011;4038;42.612;23.066;2023-01-24T04:55:58;21.33;;;19.83;;
7985;SDS011;4038;42.612;23.066;2023-01-24T04:58:26;21.90;;;20.40;;
7985;SDS011;4038;42.612;23.066;2023-01-24T05:00:52;20.70;;;19.30;;
7985;SDS011;4038;42.612;23.066;2023-01-24T05:03:18;21.60;;;20.10;;
7985;SDS011;4038;42.612;23.066;2023-01-24T05:05:43;21.23;;;19.73;;
7985;SDS011;4038;42.612;23.066;2023-01-24T05:08:13;21.00;;;19.60;;
7985;SDS011;4038;42.612;23.066;2023-01-24T05:10:38;21.17;;;19.73;;
7985;SDS011;4038;42.612;23.066;2023-01-24T05:13:04;21.90;;;20.37;;
7985;SDS011;4038;42.612;23.066;2023-01-24T05:15:29;21.00;;;19.50;;
7985;SDS011;4038;42.612;23.066;2023-01-24T05:17:54;20.23;;;18.93;;
7985;SDS011;4038;42.612;23.066;2023-01-24T05:20:20;21.23;;;19.83;;
7985;SDS011;4038;42.612;23.066;2023-01-24T05:22:45;21.93;;;20.33;;
7985;SDS011;4038;42.612;23.066;2023-01-24T05:25:14;21.70;;;20.30;;
7985;SDS011;4038;42.612;23.066;2023-01-24T05:27:40;22.67;;;21.07;;
7985;SDS011;4038;42.612;23.066;2023-01-24T05:30:08;21.27;;;19.77;;
7985;SDS011;4038;42.612;23.066;2023-01-24T05:32:34;21.80;;;20.00;;
7985;SDS011;4038;42.612;23.066;2023-01-24T05:35:00;22.10;;;20.60;;
7985;SDS011;4038;42.612;23.066;2023-01-24T05:37:25;22.17;;;20.47;;
7985;SDS011;4038;42.612;23.066;2023-01-24T05:39:50;22.47;;;20.77;;
7985;SDS011;4038;42.612;23.066;2023-01-24T05:42:16;22.07;;;20.30;;
7985;SDS011;4038;42.612;23.066;2023-01-24T05:44:41;21.87;;;20.37;;
7985;SDS011;4038;42.612;23.066;2023-01-24T05:47:07;23.17;;;21.37;;
7985;SDS011;4038;42.612;23.066;2023-01-24T05:49:32;22.43;;;20.83;;
7985;SDS011;4038;42.612;23.066;2023-01-24T05:51:57;22.67;;;21.03;;
7985;SDS011;4038;42.612;23.066;2023-01-24T05:54:23;22.70;;;21.00;;
7985;SDS011;4038;42.612;23.066;2023-01-24T05:56:48;21.90;;;20.40;;
7985;SDS011;4038;42.612;23.066;2023-01-24T05:59:14;22.37;;;20.67;;
7985;SDS011;4038;42.612;23.066;2023-01-24T06:01:39;22.27;;;20.70;;
7985;SDS011;4038;42.612;23.066;2023-01-24T06:04:04;23.20;;;21.50;;
7985;SDS011;4038;42.612;23.066;2023-01-24T06:06:30;23.70;;;22.00;;
7985;SDS011;4038;42.612;23.066;2023-01-24T06:08:55;23.70;;;22.00;;
7985;SDS011;4038;42.612;23.066;2023-01-24T06:11:26;24.03;;;22.33;;
7985;SDS011;4038;42.612;23.066;2023-01-24T06:13:55;24.23;;;22.43;;
7985;SDS011;4038;42.612;23.066;2023-01-24T06:16:22;23.10;;;21.23;;
7985;SDS011;4038;42.612;23.066;2023-01-24T06:18:49;23.40;;;21.80;;
7985;SDS011;4038;42.612;23.066;2023-01-24T06:21:19;23.97;;;22.27;;
7985;SDS011;4038;42.612;23.066;2023-01-24T06:23:58;23.37;;;21.77;;
7985;SDS011;4038;42.612;23.066;2023-01-24T06:26:24;23.23;;;21.53;;
7985;SDS011;4038;42.612;23.066;2023-01-24T06:28:50;22.70;;;21.07;;
7985;SDS011;4038;42.612;23.066;2023-01-24T06:31:38;23.07;;;21.47;;
7985;SDS011;4038;42.612;23.066;2023-01-24T06:39:51;21.80;;;20.30;;
7985;SDS011;4038;42.612;23.066;2023-01-24T06:42:18;21.87;;;20.37;;
7985;SDS011;4038;42.612;23.066;2023-01-24T06:44:45;21.80;;;20.30;;
7985;SDS011;4038;42.612;23.066;2023-01-24T06:47:10;22.57;;;20.87;;
7985;SDS011;4038;42.612;23.066;2023-01-24T06:49:37;22.13;;;20.43;;
7985;SDS011;4038;42.612;23.066;2023-01-24T06:52:02;22.87;;;21.27;;
7985;SDS011;4038;42.612;23.066;2023-01-24T06:54:28;21.97;;;20.47;;
7985;SDS011;4038;42.612;23.066;2023-01-24T06:56:53;22.27;;;20.50;;
7985;SDS011;4038;42.612;23.066;2023-01-24T06:59:19;22.53;;;20.93;;
7985;SDS011;4038;42.612;23.066;2023-01-24T07:01:47;21.73;;;20.23;;
7985;SDS011;4038;42.612;23.066;2023-01-24T07:04:13;23.00;;;21.40;;
7985;SDS011;4038;42.612;23.066;2023-01-24T07:06:38;23.00;;;21.40;;
7985;SDS011;4038;42.612;23.066;2023-01-24T07:09:04;22.27;;;20.67;;
7985;SDS011;4038;42.612;23.066;2023-01-24T07:11:30;22.87;;;21.27;;
7985;SDS011;4038;42.612;23.066;2023-01-24T07:13:55;23.67;;;21.97;;
7985;SDS011;4038;42.612;23.066;2023-01-24T07:16:21;22.80;;;21.20;;
7985;SDS011;4038;42.612;23.066;2023-01-24T07:18:46;23.70;;;22.10;;
7985;SDS011;4038;42.612;23.066;2023-01-24T07:21:12;21.60;;;20.20;;
7985;SDS011;4038;42.612;23.066;2023-01-24T07:23:37;22.30;;;20.80;;
7985;SDS011;4038;42.612;23.066;2023-01-24T07:26:08;22.27;;;20.77;;
7985;SDS011;4038;42.612;23.066;2023-01-24T07:28:36;21.93;;;20.43;;
7985;SDS011;4038;42.612;23.066;2023-01-24T07:31:01;21.77;;;20.27;;
7985;SDS011;4038;42.612;23.066;2023-01-24T07:33:28;21.30;;;19.90;;
7985;SDS011;4038;42.612;23.066;2023-01-24T07:35:53;20.60;;;19.20;;
7985;SDS011;4038;42.612;23.066;2023-01-24T07:38:19;22.20;;;20.63;;
7985;SDS011;4038;42.612;23.066;2023-01-24T07:40:44;22.90;;;21.40;;
7985;SDS011;4038;42.612;23.066;2023-01-24T07:43:10;22.30;;;20.80;;
7985;SDS011;4038;42.612;23.066;2023-01-24T07:45:36;23.47;;;21.97;;
7985;SDS011;4038;42.612;23.066;2023-01-24T07:48:03;22.87;;;21.37;;
7985;SDS011;4038;42.612;23.066;2023-01-24T07:50:30;22.40;;;21.00;;
7985;SDS011;4038;42.612;23.066;2023-01-24T07:52:56;23.10;;;21.60;;
7985;SDS011;4038;42.612;23.066;2023-01-24T07:55:22;23.40;;;21.83;;
7985;SDS011;4038;42.612;23.066;2023-01-24T07:57:48;23.50;;;21.90;;
7985;SDS011;4038;42.612;23.066;2023-01-24T08:00:13;22.93;;;21.43;;
7985;SDS011;4038;42.612;23.066;2023-01-24T08:02:40;22.77;;;21.27;;
7985;SDS011;4038;42.612;23.066;2023-01-24T08:05:06;23.27;;;21.77;;
7985;SDS011;4038;42.612;23.066;2023-01-24T08:07:32;22.80;;;21.30;;
7985;SDS011;4038;42.612;23.066;2023-01-24T08:09:57;23.40;;;21.70;;
7985;SDS011;4038;42.612;23.066;2023-01-24T08:12:23;22.93;;;21.33;;
7985;SDS011;4038;42.612;23.066;2023-01-24T08:14:48;22.70;;;21.20;;
7985;SDS011;4038;42.612;23.066;2023-01-24T08:17:14;22.30;;;20.80;;
7985;SDS011;4038;42.612;23.066;2023-01-24T08:19:39;22.57;;;21.07;;
7985;SDS011;4038;42.612;23.066;2023-01-24T08:22:05;23.03;;;21.53;;
7985;SDS011;4038;42.612;23.066;2023-01-24T08:24:31;22.27;;;20.77;;
7985;SDS011;4038;42.612;23.066;2023-01-24T08:26:58;21.17;;;19.70;;
7985;SDS011;4038;42.612;23.066;2023-01-24T08:29:24;20.53;;;19.23;;
7985;SDS011;4038;42.612;23.066;2023-01-24T08:31:49;21.20;;;19.80;;
7985;SDS011;4038;42.612;23.066;2023-01-24T08:34:15;23.20;;;21.20;;
7985;SDS011;4038;42.612;23.066;2023-01-24T08:36:40;21.93;;;20.33;;
7985;SDS011;4038;42.612;23.066;2023-01-24T08:39:08;23.07;;;21.47;;
7985;SDS011;4038;42.612;23.066;2023-01-24T08:41:34;23.17;;;21.57;;
7985;SDS011;4038;42.612;23.066;2023-01-24T08:44:01;23.53;;;21.93;;
7985;SDS011;4038;42.612;23.066;2023-01-24T08:46:27;24.60;;;22.80;;
7985;SDS011;4038;42.612;23.066;2023-01-24T08:48:53;25.33;;;23.53;;
7985;SDS011;4038;42.612;23.066;2023-01-24T08:51:19;25.93;;;24.07;;
7985;SDS011;4038;42.612;23.066;2023-01-24T08:53:44;26.90;;;25.00;;
7985;SDS011;4038;42.612;23.066;2023-01-24T08:56:11;26.10;;;24.20;;
7985;SDS011;4038;42.612;23.066;2023-01-24T08:58:37;25.23;;;23.33;;
7985;SDS011;4038;42.612;23.066;2023-01-24T09:01:06;25.00;;;23.10;;
7985;SDS011;4038;42.612;23.066;2023-01-24T09:03:32;26.30;;;24.30;;
7985;SDS011;4038;42.612;23.066;2023-01-24T09:05:58;25.80;;;23.90;;
7985;SDS011;4038;42.612;23.066;2023-01-24T09:08:24;26.43;;;24.43;;
7985;SDS011;4038;42.612;23.066;2023-01-24T09:10:49;25.70;;;23.80;;
7985;SDS011;4038;42.612;23.066;2023-01-24T09:13:15;26.63;;;24.67;;
7985;SDS011;4038;42.612;23.066;2023-01-24T09:15:43;26.33;;;24.33;;
7985;SDS011;4038;42.612;23.066;2023-01-24T09:18:08;25.70;;;23.80;;
7985;SDS011;4038;42.612;23.066;2023-01-24T09:20:34;25.40;;;23.50;;
7985;SDS011;4038;42.612;23.066;2023-01-24T09:23:00;25.37;;;23.43;;
7985;SDS011;4038;42.612;23.066;2023-01-24T09:25:32;25.10;;;23.20;;
7985;SDS011;4038;42.612;23.066;2023-01-24T09:27:57;25.03;;;23.23;;
7985;SDS011;4038;42.612;23.066;2023-01-24T09:30:22;24.77;;;22.93;;
7985;SDS011;4038;42.612;23.066;2023-01-24T09:32:48;25.23;;;23.33;;
7985;SDS011;4038;42.612;23.066;2023-01-24T09:35:14;26.30;;;24.40;;
7985;SDS011;4038;42.612;23.066;2023-01-24T09:37:39;25.97;;;24.07;;
7985;SDS011;4038;42.612;23.066;2023-01-24T09:43:01;27.53;;;25.53;;
7985;SDS011;4038;42.612;23.066;2023-01-24T09:45:48;27.17;;;25.27;;
7985;SDS011;4038;42.612;23.066;2023-01-24T09:48:17;27.03;;;25.03;;
7985;SDS011;4038;42.612;23.066;2023-01-24T09:50:52;27.83;;;25.63;;
7985;SDS011;4038;42.612;23.066;2023-01-24T09:53:26;25.70;;;23.80;;
7985;SDS011;4038;42.612;23.066;2023-01-24T09:56:06;26.23;;;24.33;;
7985;SDS011;4038;42.612;23.066;2023-01-24T09:58:47;27.40;;;25.40;;
7985;SDS011;4038;42.612;23.066;2023-01-24T10:01:24;27.20;;;25.20;;
7985;SDS011;4038;42.612;23.066;2023-01-24T10:03:49;26.47;;;24.50;;
7985;SDS011;4038;42.612;23.066;2023-01-24T10:06:16;27.33;;;25.33;;
7985;SDS011;4038;42.612;23.066;2023-01-24T10:17:47;25.47;;;23.67;;
7985;SDS011;4038;42.612;23.066;2023-01-24T10:26:32;24.93;;;23.13;;
7985;SDS011;4038;42.612;23.066;2023-01-24T10:28:28;27.37;;;25.37;;
7985;SDS011;4038;42.612;23.066;2023-01-24T10:33:37;26.90;;;24.90;;
7985;SDS011;4038;42.612;23.066;2023-01-24T10:39:08;26.60;;;24.70;;
7985;SDS011;4038;42.612;23.066;2023-01-24T10:41:35;26.53;;;24.57;;
7985;SDS011;4038;42.612;23.066;2023-01-24T10:44:43;25.37;;;23.03;;
7985;SDS011;4038;42.612;23.066;2023-01-24T10:49:20;25.40;;;23.60;;
7985;SDS011;4038;42.612;23.066;2023-01-24T10:54:40;25.63;;;23.83;;
7985;SDS011;4038;42.612;23.066;2023-01-24T10:57:19;25.23;;;23.53;;
7985;SDS011;4038;42.612;23.066;2023-01-24T10:59:55;26.10;;;24.30;;
7985;SDS011;4038;42.612;23.066;2023-01-24T11:02:25;25.90;;;24.10;;
7985;SDS011;4038;42.612;23.066;2023-01-24T11:05:12;26.27;;;24.47;;
7985;SDS011;4038;42.612;23.066;2023-01-24T11:07:37;25.63;;;23.93;;
7985;SDS011;4038;42.612;23.066;2023-01-24T11:12:50;25.47;;;23.73;;
7985;SDS011;4038;42.612;23.066;2023-01-24T11:17:51;24.37;;;22.67;;
7985;SDS011;4038;42.612;23.066;2023-01-24T11:20:30;25.27;;;23.57;;
7985;SDS011;4038;42.612;23.066;2023-01-24T11:23:17;25.70;;;24.00;;
7985;SDS011;4038;42.612;23.066;2023-01-24T11:28:24;26.83;;;25.13;;
7985;SDS011;4038;42.612;23.066;2023-01-24T11:30:54;25.97;;;24.27;;
7985;SDS011;4038;42.612;23.066;2023-01-24T11:36:19;26.10;;;24.30;;
7985;SDS011;4038;42.612;23.066;2023-01-24T11:38:47;26.33;;;24.30;;
7985;SDS011;4038;42.612;23.066;2023-01-24T11:41:26;24.83;;;23.07;;
7985;SDS011;4038;42.612;23.066;2023-01-24T11:50:08;24.43;;;22.77;;
7985;SDS011;4038;42.612;23.066;2023-01-24T12:04:44;24.47;;;22.83;;
7985;SDS011;4038;42.612;23.066;2023-01-24T12:13:18;26.50;;;24.40;;
7985;SDS011;4038;42.612;23.066;2023-01-24T12:16:15;25.33;;;23.53;;
7985;SDS011;4038;42.612;23.066;2023-01-24T12:21:17;24.50;;;22.90;;
7985;SDS011;4038;42.612;23.066;2023-01-24T12:23:51;23.63;;;22.03;;
7985;SDS011;4038;42.612;23.066;2023-01-24T12:26:27;23.23;;;21.63;;
7985;SDS011;4038;42.612;23.066;2023-01-24T12:31:33;23.03;;;21.53;;
7985;SDS011;4038;42.612;23.066;2023-01-24T12:34:12;21.93;;;20.63;;
7985;SDS011;4038;42.612;23.066;2023-01-24T12:36:45;22.20;;;20.80;;
7985;SDS011;4038;42.612;23.066;2023-01-24T12:39:20;21.40;;;20.00;;
7985;SDS011;4038;42.612;23.066;2023-01-24T12:41:55;20.27;;;19.00;;
7985;SDS011;4038;42.612;23.066;2023-01-24T12:44:37;20.20;;;18.93;;
7985;SDS011;4038;42.612;23.066;2023-01-24T12:55:22;21.87;;;20.47;;
7985;SDS011;4038;42.612;23.066;2023-01-24T12:57:53;21.30;;;19.90;;
7985;SDS011;4038;42.612;23.066;2023-01-24T13:00:25;21.70;;;20.30;;
7985;SDS011;4038;42.612;23.066;2023-01-24T13:05:46;21.03;;;19.63;;
7985;SDS011;4038;42.612;23.066;2023-01-24T13:19:44;22.33;;;20.83;;
7985;SDS011;4038;42.612;23.066;2023-01-24T13:33:30;21.90;;;20.40;;
7985;SDS011;4038;42.612;23.066;2023-01-24T13:36:05;20.37;;;19.07;;
7985;SDS011;4038;42.612;23.066;2023-01-24T13:38:39;21.47;;;19.97;;
7985;SDS011;4038;42.612;23.066;2023-01-24T13:41:12;21.77;;;20.17;;
7985;SDS011;4038;42.612;23.066;2023-01-24T13:43:51;21.37;;;19.87;;
7985;SDS011;4038;42.612;23.066;2023-01-24T13:49:18;21.47;;;20.07;;
7985;SDS011;4038;42.612;23.066;2023-01-24T13:51:58;21.10;;;19.70;;
7985;SDS011;4038;42.612;23.066;2023-01-24T13:54:42;21.00;;;19.60;;
7985;SDS011;4038;42.612;23.066;2023-01-24T13:59:57;20.77;;;19.37;;
7985;SDS011;4038;42.612;23.066;2023-01-24T14:04:57;21.53;;;20.10;;
7985;SDS011;4038;42.612;23.066;2023-01-24T14:07:30;21.07;;;19.67;;
7985;SDS011;4038;42.612;23.066;2023-01-24T14:10:04;21.10;;;19.63;;
7985;SDS011;4038;42.612;23.066;2023-01-24T14:12:33;20.67;;;19.33;;
7985;SDS011;4038;42.612;23.066;2023-01-24T14:20:05;20.47;;;19.10;;
7985;SDS011;4038;42.612;23.066;2023-01-24T14:23:00;21.17;;;19.77;;
7985;SDS011;4038;42.612;23.066;2023-01-24T14:25:44;20.37;;;19.07;;
7985;SDS011;4038;42.612;23.066;2023-01-24T14:30:49;20.70;;;19.30;;
7985;SDS011;4038;42.612;23.066;2023-01-24T14:33:26;19.93;;;18.63;;
7985;SDS011;4038;42.612;23.066;2023-01-24T14:36:32;20.50;;;19.17;;
7985;SDS011;4038;42.612;23.066;2023-01-24T14:39:17;20.73;;;19.30;;
7985;SDS011;4038;42.612;23.066;2023-01-24T14:41:49;19.93;;;18.63;;
7985;SDS011;4038;42.612;23.066;2023-01-24T14:44:21;20.33;;;19.03;;
7985;SDS011;4038;42.612;23.066;2023-01-24T14:49:25;21.23;;;19.73;;
7985;SDS011;4038;42.612;23.066;2023-01-24T14:52:27;21.00;;;19.57;;
7985;SDS011;4038;42.612;23.066;2023-01-24T14:54:57;20.27;;;18.97;;
7985;SDS011;4038;42.612;23.066;2023-01-24T14:57:28;21.87;;;20.37;;
7985;SDS011;4038;42.612;23.066;2023-01-24T15:02:23;21.40;;;19.90;;
7985;SDS011;4038;42.612;23.066;2023-01-24T15:04:48;22.17;;;20.67;;
7985;SDS011;4038;42.612;23.066;2023-01-24T15:07:15;21.57;;;20.07;;
7985;SDS011;4038;42.612;23.066;2023-01-24T15:09:42;21.97;;;20.47;;
7985;SDS011;4038;42.612;23.066;2023-01-24T15:14:57;19.90;;;18.67;;
7985;SDS011;4038;42.612;23.066;2023-01-24T15:17:26;22.40;;;20.90;;
7985;SDS011;4038;42.612;23.066;2023-01-24T15:19:54;21.73;;;20.23;;
7985;SDS011;4038;42.612;23.066;2023-01-24T15:22:24;22.07;;;20.47;;
7985;SDS011;4038;42.612;23.066;2023-01-24T15:24:54;22.23;;;20.73;;
7985;SDS011;4038;42.612;23.066;2023-01-24T15:32:39;22.37;;;20.77;;
7985;SDS011;4038;42.612;23.066;2023-01-24T15:40:55;22.97;;;21.27;;
7985;SDS011;4038;42.612;23.066;2023-01-24T15:43:26;22.23;;;20.63;;
7985;SDS011;4038;42.612;23.066;2023-01-24T15:49:15;22.80;;;21.20;;
7985;SDS011;4038;42.612;23.066;2023-01-24T15:54:35;22.30;;;20.70;;
7985;SDS011;4038;42.612;23.066;2023-01-24T15:57:03;24.83;;;23.03;;
7985;SDS011;4038;42.612;23.066;2023-01-24T15:59:31;24.23;;;22.53;;
7985;SDS011;4038;42.612;23.066;2023-01-24T16:01:58;24.10;;;22.40;;
7985;SDS011;4038;42.612;23.066;2023-01-24T16:04:24;23.37;;;21.43;;
7985;SDS011;4038;42.612;23.066;2023-01-24T16:06:50;23.60;;;22.00;;
7985;SDS011;4038;42.612;23.066;2023-01-24T16:09:16;24.17;;;22.37;;
7985;SDS011;4038;42.612;23.066;2023-01-24T16:11:43;23.73;;;21.93;;
7985;SDS011;4038;42.612;23.066;2023-01-24T16:14:14;23.00;;;21.30;;
7985;SDS011;4038;42.612;23.066;2023-01-24T16:16:43;23.60;;;21.97;;
7985;SDS011;4038;42.612;23.066;2023-01-24T16:19:19;23.90;;;22.20;;
7985;SDS011;4038;42.612;23.066;2023-01-24T16:21:46;24.30;;;22.53;;
7985;SDS011;4038;42.612;23.066;2023-01-24T16:24:12;24.10;;;22.30;;
7985;SDS011;4038;42.612;23.066;2023-01-24T16:26:46;24.07;;;22.27;;
7985;SDS011;4038;42.612;23.066;2023-01-24T16:29:18;24.13;;;22.43;;
7985;SDS011;4038;42.612;23.066;2023-01-24T16:31:50;23.57;;;21.87;;
7985;SDS011;4038;42.612;23.066;2023-01-24T16:34:15;23.97;;;22.27;;
7985;SDS011;4038;42.612;23.066;2023-01-24T16:36:42;23.30;;;21.60;;
7985;SDS011;4038;42.612;23.066;2023-01-24T16:39:09;23.70;;;22.03;;
7985;SDS011;4038;42.612;23.066;2023-01-24T16:41:42;24.03;;;22.33;;
7985;SDS011;4038;42.612;23.066;2023-01-24T16:44:07;24.50;;;22.80;;
7985;SDS011;4038;42.612;23.066;2023-01-24T16:46:32;24.50;;;22.63;;
7985;SDS011;4038;42.612;23.066;2023-01-24T16:48:58;24.47;;;22.67;;
7985;SDS011;4038;42.612;23.066;2023-01-24T16:51:24;25.53;;;23.63;;
7985;SDS011;4038;42.612;23.066;2023-01-24T16:53:55;24.23;;;22.43;;
7985;SDS011;4038;42.612;23.066;2023-01-24T17:03:04;23.73;;;22.03;;
7985;SDS011;4038;42.612;23.066;2023-01-24T17:05:30;24.97;;;23.07;;
7985;SDS011;4038;42.612;23.066;2023-01-24T17:07:56;24.67;;;22.87;;
7985;SDS011;4038;42.612;23.066;2023-01-24T17:10:22;25.50;;;23.50;;
7985;SDS011;4038;42.612;23.066;2023-01-24T17:12:49;23.60;;;21.90;;
7985;SDS011;4038;42.612;23.066;2023-01-24T17:15:14;24.57;;;22.67;;
7985;SDS011;4038;42.612;23.066;2023-01-24T17:17:40;24.33;;;22.53;;
7985;SDS011;4038;42.612;23.066;2023-01-24T17:20:07;24.40;;;22.60;;
7985;SDS011;4038;42.612;23.066;2023-01-24T17:22:35;25.17;;;23.27;;
7985;SDS011;4038;42.612;23.066;2023-01-24T17:25:02;26.17;;;24.17;;
7985;SDS011;4038;42.612;23.066;2023-01-24T17:27:28;27.23;;;25.00;;
7985;SDS011;4038;42.612;23.066;2023-01-24T17:29:53;25.50;;;23.53;;
7985;SDS011;4038;42.612;23.066;2023-01-24T17:32:18;27.13;;;24.97;;
7985;SDS011;4038;42.612;23.066;2023-01-24T17:34:44;25.27;;;23.47;;
7985;SDS011;4038;42.612;23.066;2023-01-24T17:37:09;25.40;;;23.57;;
7985;SDS011;4038;42.612;23.066;2023-01-24T17:39:34;27.07;;;24.97;;